sensor_id;sensor_type;location;lat;lon;timestamp;pressure;altitude;pressure_sealevel;temperature;humidity
32197;BME280;18697;42.770;23.400;2023-07-13T00:01:28;95792.44;;;27.35;55.74
32197;BME280;18697;42.770;23.400;2023-07-13T00:03:55;95794.53;;;27.35;55.84
32197;BME280;18697;42.770;23.400;2023-07-13T00:06:21;95783.13;;;27.35;55.52
32197;BME280;18697;42.770;23.400;2023-07-13T00:08:47;95789.38;;;27.33;55.76
32197;BME280;18697;42.770;23.400;2023-07-13T00:11:14;95793.00;;;27.34;55.65
32197;BME280;18697;42.770;23.400;2023-07-13T00:13:41;95788.63;;;27.33;55.57
32197;BME280;18697;42.770;23.400;2023-07-13T00:16:07;95792.25;;;27.26;55.71
32197;BME280;18697;42.770;23.400;2023-07-13T00:18:32;95783.13;;;27.27;55.62
32197;BME280;18697;42.770;23.400;2023-07-13T00:20:58;95780.28;;;27.27;55.93
32197;BME280;18697;42.770;23.400;2023-07-13T00:23:33;95774.97;;;27.24;55.98
32197;BME280;18697;42.770;23.400;2023-07-13T00:26:07;95769.81;;;27.22;55.50
32197;BME280;18697;42.770;23.400;2023-07-13T00:28:33;95772.88;;;27.24;55.62
32197;BME280;18697;42.770;23.400;2023-07-13T00:30:59;95767.38;;;27.19;56.23
32197;BME280;18697;42.770;23.400;2023-07-13T00:33:25;95763.94;;;27.12;55.81
32197;BME280;18697;42.770;23.400;2023-07-13T00:35:50;95768.88;;;27.20;56.03
32197;BME280;18697;42.770;23.400;2023-07-13T00:38:16;95763.00;;;27.17;55.54
32197;BME280;18697;42.770;23.400;2023-07-13T00:40:41;95770.22;;;27.19;55.68
32197;BME280;18697;42.770;23.400;2023-07-13T00:43:16;95768.88;;;27.20;55.59
32197;BME280;18697;42.770;23.400;2023-07-13T00:48:17;95769.63;;;27.20;55.49
32197;BME280;18697;42.770;23.400;2023-07-13T00:50:44;95763.00;;;27.17;55.44
32197;BME280;18697;42.770;23.400;2023-07-13T00:53:10;95762.22;;;27.17;55.52
32197;BME280;18697;42.770;23.400;2023-07-13T00:55:37;95769.47;;;27.10;55.41
32197;BME280;18697;42.770;23.400;2023-07-13T00:58:03;95756.16;;;27.05;55.43
32197;BME280;18697;42.770;23.400;2023-07-13T01:00:30;95763.94;;;27.12;55.35
32197;BME280;18697;42.770;23.400;2023-07-13T01:02:56;95762.44;;;27.11;55.53
32197;BME280;18697;42.770;23.400;2023-07-13T01:05:22;95766.63;;;27.10;55.15
32197;BME280;18697;42.770;23.400;2023-07-13T01:07:50;95770.97;;;27.11;55.42
32197;BME280;18697;42.770;23.400;2023-07-13T01:10:21;95760.91;;;27.10;55.18
32197;BME280;18697;42.770;23.400;2023-07-13T01:12:47;95765.47;;;27.06;55.35
32197;BME280;18697;42.770;23.400;2023-07-13T01:15:35;95771.00;;;27.04;55.29
32197;BME280;18697;42.770;23.400;2023-07-13T01:18:02;95766.06;;;26.97;55.28
32197;BME280;18697;42.770;23.400;2023-07-13T01:20:28;95770.19;;;26.96;55.57
32197;BME280;18697;42.770;23.400;2023-07-13T01:22:53;95766.81;;;26.97;55.68
32197;BME280;18697;42.770;23.400;2023-07-13T01:25:19;95761.88;;;26.98;55.46
32197;BME280;18697;42.770;23.400;2023-07-13T01:27:45;95761.13;;;26.97;55.40
32197;BME280;18697;42.770;23.400;2023-07-13T01:30:11;95763.19;;;26.97;55.64
32197;BME280;18697;42.770;23.400;2023-07-13T01:32:36;95760.91;;;26.95;55.42
32197;BME280;18697;42.770;23.400;2023-07-13T01:35:02;95768.34;;;26.98;55.42
32197;BME280;18697;42.770;23.400;2023-07-13T01:37:27;95766.06;;;26.97;55.08
32197;BME280;18697;42.770;23.400;2023-07-13T01:39:53;95771.00;;;26.96;55.52
32197;BME280;18697;42.770;23.400;2023-07-13T01:42:19;95757.84;;;26.93;55.21
32197;BME280;18697;42.770;23.400;2023-07-13T01:44:44;95760.53;;;26.83;55.48
32197;BME280;18697;42.770;23.400;2023-07-13T01:47:10;95753.09;;;26.88;55.71
32197;BME280;18697;42.770;23.400;2023-07-13T01:49:35;95753.31;;;26.82;55.89
32197;BME280;18697;42.770;23.400;2023-07-13T01:52:02;95753.50;;;26.84;55.86
32197;BME280;18697;42.770;23.400;2023-07-13T01:54:28;95753.09;;;26.80;55.83
32197;BME280;18697;42.770;23.400;2023-07-13T01:56:53;95755.78;;;26.78;55.97
32197;BME280;18697;42.770;23.400;2023-07-13T01:59:19;95763.94;;;26.74;55.57
32197;BME280;18697;42.770;23.400;2023-07-13T02:01:44;95759.00;;;26.75;55.54
32197;BME280;18697;42.770;23.400;2023-07-13T02:04:09;95768.53;;;26.70;55.75
32197;BME280;18697;42.770;23.400;2023-07-13T02:06:36;95764.72;;;26.67;55.78
32197;BME280;18697;42.770;23.400;2023-07-13T02:09:01;95770.03;;;26.63;56.05
32197;BME280;18697;42.770;23.400;2023-07-13T02:11:26;95766.97;;;26.46;56.38
32197;BME280;18697;42.770;23.400;2023-07-13T02:13:59;95764.31;;;26.40;56.97
32197;BME280;18697;42.770;23.400;2023-07-13T02:16:24;95762.22;;;26.33;56.94
32197;BME280;18697;42.770;23.400;2023-07-13T02:18:49;95763.34;;;26.38;57.07
32197;BME280;18697;42.770;23.400;2023-07-13T02:21:17;95767.16;;;26.40;56.95
32197;BME280;18697;42.770;23.400;2023-07-13T02:23:43;95762.97;;;26.34;56.84
32197;BME280;18697;42.770;23.400;2023-07-13T02:26:08;95768.28;;;26.37;57.07
32197;BME280;18697;42.770;23.400;2023-07-13T02:28:33;95772.28;;;26.34;57.03
32197;BME280;18697;42.770;23.400;2023-07-13T02:31:10;95779.88;;;26.39;57.17
32197;BME280;18697;42.770;23.400;2023-07-13T02:33:37;95780.06;;;26.41;56.77
32197;BME280;18697;42.770;23.400;2023-07-13T02:36:02;95771.72;;;26.43;56.88
32197;BME280;18697;42.770;23.400;2023-07-13T02:38:30;95779.31;;;26.41;56.77
32197;BME280;18697;42.770;23.400;2023-07-13T02:40:55;95777.22;;;26.41;57.00
32197;BME280;18697;42.770;23.400;2023-07-13T02:43:21;95776.28;;;26.39;57.11
32197;BME280;18697;42.770;23.400;2023-07-13T02:45:47;95781.22;;;26.38;57.09
32197;BME280;18697;42.770;23.400;2023-07-13T02:48:13;95785.56;;;26.39;56.68
32197;BME280;18697;42.770;23.400;2023-07-13T02:50:39;95781.97;;;26.39;56.72
32197;BME280;18697;42.770;23.400;2023-07-13T02:53:04;95775.69;;;26.40;56.52
32197;BME280;18697;42.770;23.400;2023-07-13T02:55:30;95776.84;;;26.37;56.83
32197;BME280;18697;42.770;23.400;2023-07-13T02:57:55;95786.50;;;26.34;56.35
32197;BME280;18697;42.770;23.400;2023-07-13T03:00:22;95786.50;;;26.34;56.73
32197;BME280;18697;42.770;23.400;2023-07-13T03:02:47;95786.31;;;26.32;56.84
32197;BME280;18697;42.770;23.400;2023-07-13T03:05:13;95787.22;;;26.27;56.69
32197;BME280;18697;42.770;23.400;2023-07-13T03:07:39;95791.41;;;26.26;56.97
32197;BME280;18697;42.770;23.400;2023-07-13T03:10:05;95798.59;;;26.27;56.88
32197;BME280;18697;42.770;23.400;2023-07-13T03:12:32;95792.53;;;26.31;56.71
32197;BME280;18697;42.770;23.400;2023-07-13T03:14:57;95792.91;;;26.27;56.34
32197;BME280;18697;42.770;23.400;2023-07-13T03:17:23;95797.28;;;26.28;56.41
32197;BME280;18697;42.770;23.400;2023-07-13T03:19:48;95789.50;;;26.29;56.21
32197;BME280;18697;42.770;23.400;2023-07-13T03:22:17;95786.06;;;26.23;56.29
32197;BME280;18697;42.770;23.400;2023-07-13T03:24:42;95797.28;;;26.28;56.50
32197;BME280;18697;42.770;23.400;2023-07-13T03:27:07;95798.59;;;26.27;56.53
32197;BME280;18697;42.770;23.400;2023-07-13T03:29:33;95790.63;;;26.26;56.25
32197;BME280;18697;42.770;23.400;2023-07-13T03:31:58;95784.00;;;26.31;56.31
32197;BME280;18697;42.770;23.400;2023-07-13T03:34:24;95792.53;;;26.31;56.16
32197;BME280;18697;42.770;23.400;2023-07-13T03:36:50;95797.13;;;26.34;56.08
32197;BME280;18697;42.770;23.400;2023-07-13T03:39:15;95794.84;;;26.32;55.92
32197;BME280;18697;42.770;23.400;2023-07-13T03:41:41;95802.06;;;26.33;56.01
32197;BME280;18697;42.770;23.400;2023-07-13T03:44:06;95807.97;;;26.35;56.18
32197;BME280;18697;42.770;23.400;2023-07-13T03:46:32;95798.09;;;26.36;56.02
32197;BME280;18697;42.770;23.400;2023-07-13T03:48:58;95797.53;;;26.38;56.34
32197;BME280;18697;42.770;23.400;2023-07-13T03:51:24;95791.06;;;26.37;55.98
32197;BME280;18697;42.770;23.400;2023-07-13T03:53:50;95799.81;;;26.39;56.04
32197;BME280;18697;42.770;23.400;2023-07-13T03:56:17;95790.50;;;26.39;55.89
32197;BME280;18697;42.770;23.400;2023-07-13T03:58:44;95794.88;;;26.40;56.32
32197;BME280;18697;42.770;23.400;2023-07-13T04:01:11;95797.72;;;26.40;56.55
32197;BME280;18697;42.770;23.400;2023-07-13T04:03:37;95800.19;;;26.43;56.36
32197;BME280;18697;42.770;23.400;2023-07-13T04:06:05;95803.81;;;26.44;56.44
32197;BME280;18697;42.770;23.400;2023-07-13T04:08:36;95801.72;;;26.44;55.96
32197;BME280;18697;42.770;23.400;2023-07-13T04:11:03;95799.63;;;26.37;56.20
32197;BME280;18697;42.770;23.400;2023-07-13T04:13:29;95801.13;;;26.38;56.29
32197;BME280;18697;42.770;23.400;2023-07-13T04:15:54;95795.44;;;26.38;56.89
32197;BME280;18697;42.770;23.400;2023-07-13T04:18:20;95806.25;;;26.32;56.76
32197;BME280;18697;42.770;23.400;2023-07-13T04:20:47;95814.16;;;26.18;57.39
32197;BME280;18697;42.770;23.400;2023-07-13T04:23:13;95806.13;;;26.02;58.08
32197;BME280;18697;42.770;23.400;2023-07-13T04:25:38;95816.56;;;26.07;58.19
32197;BME280;18697;42.770;23.400;2023-07-13T04:28:04;95816.22;;;26.18;57.64
32197;BME280;18697;42.770;23.400;2023-07-13T04:30:30;95813.41;;;26.26;57.88
32197;BME280;18697;42.770;23.400;2023-07-13T04:32:56;95818.53;;;26.27;57.58
32197;BME280;18697;42.770;23.400;2023-07-13T04:35:22;95830.19;;;26.37;57.51
32197;BME280;18697;42.770;23.400;2023-07-13T04:37:49;95826.97;;;26.40;57.70
32197;BME280;18697;42.770;23.400;2023-07-13T04:40:16;95822.97;;;26.43;57.72
32197;BME280;18697;42.770;23.400;2023-07-13T04:42:42;95822.59;;;26.47;57.46
32197;BME280;18697;42.770;23.400;2023-07-13T04:45:07;95817.50;;;26.53;57.69
32197;BME280;18697;42.770;23.400;2023-07-13T04:47:33;95816.38;;;26.56;57.82
32197;BME280;18697;42.770;23.400;2023-07-13T04:49:58;95822.06;;;26.64;57.71
32197;BME280;18697;42.770;23.400;2023-07-13T04:52:24;95819.59;;;26.68;57.65
32197;BME280;18697;42.770;23.400;2023-07-13T04:54:49;95830.06;;;26.73;57.67
32197;BME280;18697;42.770;23.400;2023-07-13T04:57:15;95833.59;;;26.35;59.41
32197;BME280;18697;42.770;23.400;2023-07-13T04:59:41;95834.94;;;26.42;58.51
32197;BME280;18697;42.770;23.400;2023-07-13T05:02:06;95827.94;;;26.50;58.66
32197;BME280;18697;42.770;23.400;2023-07-13T05:04:32;95827.19;;;26.58;58.40
32197;BME280;18697;42.770;23.400;2023-07-13T05:06:59;95835.63;;;26.27;59.75
32197;BME280;18697;42.770;23.400;2023-07-13T05:09:24;95838.66;;;26.29;59.51
32197;BME280;18697;42.770;23.400;2023-07-13T05:11:50;95835.25;;;26.31;59.65
32197;BME280;18697;42.770;23.400;2023-07-13T05:14:15;95834.91;;;25.83;61.57
32197;BME280;18697;42.770;23.400;2023-07-13T05:16:41;95834.97;;;25.34;64.92
32197;BME280;18697;42.770;23.400;2023-07-13T05:19:07;95840.44;;;23.80;70.22
32197;BME280;18697;42.770;23.400;2023-07-13T05:21:33;95843.53;;;23.69;72.40
32197;BME280;18697;42.770;23.400;2023-07-13T05:23:58;95840.09;;;23.84;72.07
32197;BME280;18697;42.770;23.400;2023-07-13T05:26:23;95841.78;;;23.66;73.13
32197;BME280;18697;42.770;23.400;2023-07-13T05:28:49;95836.69;;;23.99;71.03
32197;BME280;18697;42.770;23.400;2023-07-13T05:31:14;95843.91;;;23.86;74.16
32197;BME280;18697;42.770;23.400;2023-07-13T05:33:40;95842.69;;;23.95;74.68
32197;BME280;18697;42.770;23.400;2023-07-13T05:36:06;95845.81;;;23.71;77.29
32197;BME280;18697;42.770;23.400;2023-07-13T05:38:32;95852.47;;;23.73;78.04
32197;BME280;18697;42.770;23.400;2023-07-13T05:40:58;95855.41;;;23.68;78.99
32197;BME280;18697;42.770;23.400;2023-07-13T05:43:24;95847.34;;;23.58;78.31
32197;BME280;18697;42.770;23.400;2023-07-13T05:45:52;95855.50;;;23.75;79.08
32197;BME280;18697;42.770;23.400;2023-07-13T05:48:18;95853.09;;;23.79;75.61
32197;BME280;18697;42.770;23.400;2023-07-13T05:50:44;95864.09;;;23.83;74.12
32197;BME280;18697;42.770;23.400;2023-07-13T05:53:09;95852.72;;;23.96;73.82
32197;BME280;18697;42.770;23.400;2023-07-13T05:55:35;95849.06;;;24.22;72.36
32197;BME280;18697;42.770;23.400;2023-07-13T05:58:01;95853.34;;;24.29;73.02
32197;BME280;18697;42.770;23.400;2023-07-13T06:00:27;95841.94;;;24.42;70.35
32197;BME280;18697;42.770;23.400;2023-07-13T06:02:52;95852.19;;;24.45;67.38
32197;BME280;18697;42.770;23.400;2023-07-13T06:05:18;95843.25;;;24.62;66.87
32197;BME280;18697;42.770;23.400;2023-07-13T06:07:43;95849.00;;;24.48;65.45
32197;BME280;18697;42.770;23.400;2023-07-13T06:10:09;95847.97;;;24.59;65.42
32197;BME280;18697;42.770;23.400;2023-07-13T06:12:34;95855.09;;;24.52;65.62
32197;BME280;18697;42.770;23.400;2023-07-13T06:15:00;95854.34;;;24.73;64.39
32197;BME280;18697;42.770;23.400;2023-07-13T06:17:25;95858.97;;;24.63;64.59
32197;BME280;18697;42.770;23.400;2023-07-13T06:19:50;95855.25;;;24.68;65.42
32197;BME280;18697;42.770;23.400;2023-07-13T06:22:16;95858.88;;;25.10;64.68
32197;BME280;18697;42.770;23.400;2023-07-13T06:24:41;95870.53;;;25.27;65.88
32197;BME280;18697;42.770;23.400;2023-07-13T06:27:06;95855.94;;;25.23;64.26
32197;BME280;18697;42.770;23.400;2023-07-13T06:29:32;95859.31;;;25.50;62.97
32197;BME280;18697;42.770;23.400;2023-07-13T06:31:58;95857.41;;;25.73;63.23
32197;BME280;18697;42.770;23.400;2023-07-13T06:34:23;95855.44;;;25.97;61.43
32197;BME280;18697;42.770;23.400;2023-07-13T06:36:49;95850.47;;;25.90;58.43
32197;BME280;18697;42.770;23.400;2023-07-13T06:39:14;95852.41;;;25.95;57.37
32197;BME280;18697;42.770;23.400;2023-07-13T06:41:39;95853.84;;;26.24;59.05
32197;BME280;18697;42.770;23.400;2023-07-13T06:44:05;95836.66;;;26.45;59.31
32197;BME280;18697;42.770;23.400;2023-07-13T06:46:32;95835.16;;;26.74;59.52
32197;BME280;18697;42.770;23.400;2023-07-13T06:48:57;95833.69;;;26.96;58.19
32197;BME280;18697;42.770;23.400;2023-07-13T06:51:23;95824.72;;;26.92;57.98
32197;BME280;18697;42.770;23.400;2023-07-13T06:53:48;95838.59;;;26.58;58.81
32197;BME280;18697;42.770;23.400;2023-07-13T06:56:15;95841.06;;;26.84;59.18
32197;BME280;18697;42.770;23.400;2023-07-13T06:58:41;95835.75;;;26.88;59.03
32197;BME280;18697;42.770;23.400;2023-07-13T07:01:06;95845.41;;;26.55;59.11
32197;BME280;18697;42.770;23.400;2023-07-13T07:03:32;95847.72;;;26.87;58.74
32197;BME280;18697;42.770;23.400;2023-07-13T07:06:12;95840.88;;;26.90;56.87
32197;BME280;18697;42.770;23.400;2023-07-13T07:08:38;95835.38;;;26.92;55.29
32197;BME280;18697;42.770;23.400;2023-07-13T07:11:03;95829.09;;;26.93;56.55
32197;BME280;18697;42.770;23.400;2023-07-13T07:13:29;95836.53;;;27.19;58.00
32197;BME280;18697;42.770;23.400;2023-07-13T07:15:55;95827.97;;;27.27;56.99
32197;BME280;18697;42.770;23.400;2023-07-13T07:18:20;95825.13;;;27.27;57.05
32197;BME280;18697;42.770;23.400;2023-07-13T07:20:46;95820.38;;;27.37;55.53
32197;BME280;18697;42.770;23.400;2023-07-13T07:23:11;95827.16;;;27.64;56.66
32197;BME280;18697;42.770;23.400;2023-07-13T07:25:36;95830.78;;;27.65;54.26
32197;BME280;18697;42.770;23.400;2023-07-13T07:28:07;95823.84;;;27.91;55.85
32197;BME280;18697;42.770;23.400;2023-07-13T07:30:32;95831.03;;;28.07;54.22
32197;BME280;18697;42.770;23.400;2023-07-13T07:32:58;95825.69;;;28.11;54.81
32197;BME280;18697;42.770;23.400;2023-07-13T07:35:23;95823.13;;;28.30;52.85
32197;BME280;18697;42.770;23.400;2023-07-13T07:37:49;95815.09;;;28.36;52.03
32197;BME280;18697;42.770;23.400;2023-07-13T07:40:14;95815.22;;;28.46;52.76
32197;BME280;18697;42.770;23.400;2023-07-13T07:42:40;95814.19;;;28.59;53.55
32197;BME280;18697;42.770;23.400;2023-07-13T07:45:05;95811.25;;;28.74;51.82
32197;BME280;18697;42.770;23.400;2023-07-13T07:47:31;95808.13;;;28.55;50.27
32197;BME280;18697;42.770;23.400;2023-07-13T07:49:56;95808.50;;;28.59;51.05
32197;BME280;18697;42.770;23.400;2023-07-13T07:52:22;95811.16;;;28.57;51.48
32197;BME280;18697;42.770;23.400;2023-07-13T07:54:47;95807.38;;;28.54;53.42
32197;BME280;18697;42.770;23.400;2023-07-13T07:57:13;95804.78;;;28.73;50.94
32197;BME280;18697;42.770;23.400;2023-07-13T07:59:38;95803.25;;;28.72;51.56
32197;BME280;18697;42.770;23.400;2023-07-13T08:02:04;95797.59;;;29.15;53.31
32197;BME280;18697;42.770;23.400;2023-07-13T08:04:29;95805.09;;;29.52;52.93
32197;BME280;18697;42.770;23.400;2023-07-13T08:06:55;95793.69;;;29.79;49.49
32197;BME280;18697;42.770;23.400;2023-07-13T08:09:21;95793.78;;;30.06;49.22
32197;BME280;18697;42.770;23.400;2023-07-13T08:11:47;95794.03;;;30.18;50.81
32197;BME280;18697;42.770;23.400;2023-07-13T08:14:12;95784.25;;;29.86;47.50
32197;BME280;18697;42.770;23.400;2023-07-13T08:16:37;95787.97;;;29.79;47.27
32197;BME280;18697;42.770;23.400;2023-07-13T08:19:03;95783.44;;;29.76;49.48
32197;BME280;18697;42.770;23.400;2023-07-13T08:21:29;95778.13;;;29.90;48.27
32197;BME280;18697;42.770;23.400;2023-07-13T08:23:55;95781.88;;;30.27;48.91
32197;BME280;18697;42.770;23.400;2023-07-13T08:26:21;95778.16;;;30.61;48.01
32197;BME280;18697;42.770;23.400;2023-07-13T08:28:47;95784.75;;;30.90;48.30
32197;BME280;18697;42.770;23.400;2023-07-13T08:31:12;95777.56;;;30.99;45.86
32197;BME280;18697;42.770;23.400;2023-07-13T08:33:38;95769.78;;;30.82;47.70
32197;BME280;18697;42.770;23.400;2023-07-13T08:36:06;95770.50;;;30.73;47.24
32197;BME280;18697;42.770;23.400;2023-07-13T08:38:31;95760.34;;;30.99;47.46
32197;BME280;18697;42.770;23.400;2023-07-13T08:40:57;95761.66;;;30.88;46.44
32197;BME280;18697;42.770;23.400;2023-07-13T08:43:27;95761.53;;;30.96;47.04
32197;BME280;18697;42.770;23.400;2023-07-13T08:46:05;95765.56;;;31.29;47.90
32197;BME280;18697;42.770;23.400;2023-07-13T08:48:53;95762.75;;;31.68;48.56
32197;BME280;18697;42.770;23.400;2023-07-13T08:51:41;95760.47;;;31.95;46.33
32197;BME280;18697;42.770;23.400;2023-07-13T08:54:23;95762.25;;;32.20;47.46
32197;BME280;18697;42.770;23.400;2023-07-13T08:56:50;95769.38;;;32.28;42.73
32197;BME280;18697;42.770;23.400;2023-07-13T08:59:20;95780.84;;;32.48;46.72
32197;BME280;18697;42.770;23.400;2023-07-13T09:04:47;95791.31;;;32.74;47.26
32197;BME280;18697;42.770;23.400;2023-07-13T09:10:17;95784.13;;;33.04;44.02
32197;BME280;18697;42.770;23.400;2023-07-13T09:15:41;95781.28;;;33.25;44.02
32197;BME280;18697;42.770;23.400;2023-07-13T09:23:45;95769.78;;;33.68;43.19
32197;BME280;18697;42.770;23.400;2023-07-13T09:26:19;95766.56;;;33.74;43.16
32197;BME280;18697;42.770;23.400;2023-07-13T09:28:48;95767.00;;;33.80;42.84
32197;BME280;18697;42.770;23.400;2023-07-13T09:31:24;95768.44;;;33.90;44.13
32197;BME280;18697;42.770;23.400;2023-07-13T09:33:51;95775.22;;;33.95;44.46
32197;BME280;18697;42.770;23.400;2023-07-13T09:36:28;95774.50;;;34.06;42.64
32197;BME280;18697;42.770;23.400;2023-07-13T09:39:18;95775.53;;;34.11;45.21
32197;BME280;18697;42.770;23.400;2023-07-13T09:41:59;95759.63;;;34.21;42.15
32197;BME280;18697;42.770;23.400;2023-07-13T09:44:36;95760.78;;;34.16;40.32
32197;BME280;18697;42.770;23.400;2023-07-13T09:47:02;95754.97;;;34.05;41.19
32197;BME280;18697;42.770;23.400;2023-07-13T09:49:35;95750.00;;;34.17;44.14
32197;BME280;18697;42.770;23.400;2023-07-13T09:52:05;95741.34;;;34.28;44.25
32197;BME280;18697;42.770;23.400;2023-07-13T09:54:34;95739.53;;;34.45;40.34
32197;BME280;18697;42.770;23.400;2023-07-13T09:57:01;95734.13;;;34.39;41.20
32197;BME280;18697;42.770;23.400;2023-07-13T09:59:33;95735.69;;;34.64;41.04
32197;BME280;18697;42.770;23.400;2023-07-13T10:01:59;95737.34;;;34.78;41.75
32197;BME280;18697;42.770;23.400;2023-07-13T10:04:33;95739.75;;;34.82;39.01
32197;BME280;18697;42.770;23.400;2023-07-13T10:07:12;95728.69;;;35.02;41.62
32197;BME280;18697;42.770;23.400;2023-07-13T10:09:40;95729.94;;;34.75;38.28
32197;BME280;18697;42.770;23.400;2023-07-13T10:12:15;95727.06;;;34.99;39.42
32197;BME280;18697;42.770;23.400;2023-07-13T10:14:42;95730.69;;;35.11;38.64
32197;BME280;18697;42.770;23.400;2023-07-13T10:17:12;95727.28;;;35.14;37.91
32197;BME280;18697;42.770;23.400;2023-07-13T10:19:41;95728.16;;;35.17;36.38
32197;BME280;18697;42.770;23.400;2023-07-13T10:22:25;95712.34;;;35.18;38.60
32197;BME280;18697;42.770;23.400;2023-07-13T10:24:53;95711.97;;;35.35;37.46
32197;BME280;18697;42.770;23.400;2023-07-13T10:27:40;95716.47;;;35.50;37.17
32197;BME280;18697;42.770;23.400;2023-07-13T10:30:21;95699.84;;;35.62;38.66
32197;BME280;18697;42.770;23.400;2023-07-13T10:32:49;95706.06;;;35.70;36.41
32197;BME280;18697;42.770;23.400;2023-07-13T10:35:17;95708.78;;;35.92;36.77
32197;BME280;18697;42.770;23.400;2023-07-13T10:38:00;95699.38;;;36.16;36.74
32197;BME280;18697;42.770;23.400;2023-07-13T10:40:37;95694.31;;;36.29;36.04
32197;BME280;18697;42.770;23.400;2023-07-13T10:43:08;95689.94;;;36.16;35.49
32197;BME280;18697;42.770;23.400;2023-07-13T10:45:38;95687.69;;;35.89;32.77
32197;BME280;18697;42.770;23.400;2023-07-13T10:48:05;95685.22;;;35.72;34.25
32197;BME280;18697;42.770;23.400;2023-07-13T10:50:42;95673.34;;;35.91;36.04
32197;BME280;18697;42.770;23.400;2023-07-13T10:53:29;95671.63;;;36.11;34.29
32197;BME280;18697;42.770;23.400;2023-07-13T10:56:22;95683.94;;;36.12;32.21
32197;BME280;18697;42.770;23.400;2023-07-13T10:59:46;95666.69;;;36.39;33.74
32197;BME280;18697;42.770;23.400;2023-07-13T11:01:56;95669.25;;;36.47;34.13
32197;BME280;18697;42.770;23.400;2023-07-13T11:04:23;95666.50;;;36.63;33.25
32197;BME280;18697;42.770;23.400;2023-07-13T11:06:53;95666.81;;;36.69;31.50
32197;BME280;18697;42.770;23.400;2023-07-13T11:12:29;95659.78;;;36.85;31.33
32197;BME280;18697;42.770;23.400;2023-07-13T11:15:13;95659.03;;;36.99;32.55
32197;BME280;18697;42.770;23.400;2023-07-13T11:17:49;95659.69;;;37.11;30.94
32197;BME280;18697;42.770;23.400;2023-07-13T11:22:47;95653.53;;;37.18;31.71
32197;BME280;18697;42.770;23.400;2023-07-13T11:25:29;95660.47;;;36.45;28.82
32197;BME280;18697;42.770;23.400;2023-07-13T11:36:03;95640.56;;;36.51;29.63
32197;BME280;18697;42.770;23.400;2023-07-13T11:38:36;95631.03;;;36.62;31.69
32197;BME280;18697;42.770;23.400;2023-07-13T11:41:14;95634.03;;;36.64;31.64
32197;BME280;18697;42.770;23.400;2023-07-13T11:43:40;95626.44;;;36.71;31.39
32197;BME280;18697;42.770;23.400;2023-07-13T11:46:15;95631.81;;;36.76;31.53
32197;BME280;18697;42.770;23.400;2023-07-13T11:48:44;95632.44;;;36.61;32.48
32197;BME280;18697;42.770;23.400;2023-07-13T11:51:23;95621.38;;;36.44;30.86
32197;BME280;18697;42.770;23.400;2023-07-13T11:53:50;95610.78;;;36.62;33.13
32197;BME280;18697;42.770;23.400;2023-07-13T11:56:18;95606.94;;;36.71;33.42
32197;BME280;18697;42.770;23.400;2023-07-13T11:58:44;95612.81;;;36.73;32.66
32197;BME280;18697;42.770;23.400;2023-07-13T12:01:18;95617.56;;;36.80;30.24
32197;BME280;18697;42.770;23.400;2023-07-13T12:03:45;95621.63;;;36.89;31.34
32197;BME280;18697;42.770;23.400;2023-07-13T12:06:44;95615.75;;;37.01;29.27
32197;BME280;18697;42.770;23.400;2023-07-13T12:09:12;95614.13;;;37.11;28.55
32197;BME280;18697;42.770;23.400;2023-07-13T12:11:40;95612.91;;;37.16;28.80
32197;BME280;18697;42.770;23.400;2023-07-13T12:14:13;95602.44;;;37.09;28.59
32197;BME280;18697;42.770;23.400;2023-07-13T12:16:38;95586.59;;;36.97;30.00
32197;BME280;18697;42.770;23.400;2023-07-13T12:19:17;95588.28;;;37.02;29.12
32197;BME280;18697;42.770;23.400;2023-07-13T12:21:44;95592.28;;;36.81;29.68
32197;BME280;18697;42.770;23.400;2023-07-13T12:24:18;95587.88;;;36.94;28.92
32197;BME280;18697;42.770;23.400;2023-07-13T12:26:44;95589.25;;;36.51;27.69
32197;BME280;18697;42.770;23.400;2023-07-13T12:29:17;95581.00;;;36.46;27.72
32197;BME280;18697;42.770;23.400;2023-07-13T12:31:44;95575.44;;;36.50;29.11
32197;BME280;18697;42.770;23.400;2023-07-13T12:36:40;95553.91;;;36.80;29.60
32197;BME280;18697;42.770;23.400;2023-07-13T12:39:22;95556.34;;;37.00;29.63
32197;BME280;18697;42.770;23.400;2023-07-13T12:41:50;95554.63;;;36.95;30.76
32197;BME280;18697;42.770;23.400;2023-07-13T12:44:29;95556.69;;;36.51;29.63
32197;BME280;18697;42.770;23.400;2023-07-13T12:47:06;95546.94;;;36.31;31.12
32197;BME280;18697;42.770;23.400;2023-07-13T12:49:41;95547.78;;;36.47;30.46
32197;BME280;18697;42.770;23.400;2023-07-13T12:52:20;95544.03;;;36.58;29.09
32197;BME280;18697;42.770;23.400;2023-07-13T12:55:10;95547.78;;;36.47;29.84
32197;BME280;18697;42.770;23.400;2023-07-13T12:57:55;95538.06;;;36.27;31.07
32197;BME280;18697;42.770;23.400;2023-07-13T13:02:58;95531.78;;;35.91;30.83
32197;BME280;18697;42.770;23.400;2023-07-13T13:05:29;95528.44;;;35.83;31.55
32197;BME280;18697;42.770;23.400;2023-07-13T13:07:55;95519.53;;;35.79;32.10
32197;BME280;18697;42.770;23.400;2023-07-13T13:10:20;95522.72;;;35.71;30.96
32197;BME280;18697;42.770;23.400;2023-07-13T13:12:46;95517.31;;;35.91;32.10
32197;BME280;18697;42.770;23.400;2023-07-13T13:15:13;95511.97;;;35.85;31.66
32197;BME280;18697;42.770;23.400;2023-07-13T13:17:39;95522.78;;;35.85;32.24
32197;BME280;18697;42.770;23.400;2023-07-13T13:20:15;95512.28;;;35.92;32.13
32197;BME280;18697;42.770;23.400;2023-07-13T13:22:41;95517.44;;;35.93;31.56
32197;BME280;18697;42.770;23.400;2023-07-13T13:25:10;95510.63;;;36.14;31.98
32197;BME280;18697;42.770;23.400;2023-07-13T13:27:36;95505.56;;;36.01;31.95
32197;BME280;18697;42.770;23.400;2023-07-13T13:30:02;95522.78;;;35.99;29.93
32197;BME280;18697;42.770;23.400;2023-07-13T13:32:27;95515.06;;;35.89;31.79